Walton, New York
Current Conditions -  °F | °C
As of 5:15 AM on Sunday 25 Jan 2015 (Local Time) from KMSV Reporting Station
Overcast Overcast  
Wind Chill: 21°   Ceiling: 1800
Heat Index: 30°   Visibility: 10mi
Dew Point: 25°   Wind: 12mph
Humidity: 80%   Direction: 280°W
Pressure: 29.52"   Gusts: 17mph
Location:  42.17°N, 75.13°W
Report Text: KMSV 251015Z AUTO 28010G15KT 10SM BKN018 OVC025 M01/M04 A2952 RMK AO1
Loading
Personal Weather Stations






























Interactive Weather Map New forecast layout! Learn more

10-Day Weather Forecast

Advertisements
Track Severe Weather on mobile